Jeju

Airport
ICAO code: 
RKPC
Summary
ICAO Region: 
APAC
Territory: 
Location: 
Jeju,
Coordinates: 
Aerial View: 
33° 30' 40.677" N, 126° 29' 34.786" E
Metar
Observation
RKPC 271900Z 22003KT CAVOK 21/00 Q1006 NOSIG
Station
Cheju International Airport
Date/Time
2022-05-27 19:00:00
Wind direction
220°
Wind speed
03 kts
Lowest cloud amount
clouds and visibility OK
Temperature
21°C
Dew point
0°C
Humidity
24%
QNH
1006 hPa
Weather condition
n/a

Description

Jeju International Airport serves many mainland destinations in South Korea, as well as international destinations in China, Japan, and Taiwan.

Climatology

Warm continental climate/Humid continental climate/Humid subtropical climate (Köppen climate classification Dwa/Cwa)

Runways

Designator Length Width Surface Rops
13/31 1910 45 ASP Yes/Yes
6/24 3000 45 ASP Yes/Yes
Airport map: 
Aerial View: 

SKYbrary Partners:

Safety knowledge contributed by: